createdAt,value
2023-01-05T00:00:13.215Z,78.99
2023-01-05T00:02:39.993Z,79.31
2023-01-05T00:05:06.874Z,78.30
2023-01-05T00:07:33.869Z,81.25
2023-01-05T00:10:00.596Z,88.85
2023-01-05T00:12:45.797Z,87.65
2023-01-05T00:15:30.834Z,88.00
2023-01-05T00:18:15.995Z,94.14
2023-01-05T00:21:01.048Z,91.34
2023-01-05T00:23:27.736Z,100.00
2023-01-05T00:25:55.526Z,100.00
2023-01-05T00:28:22.225Z,98.15
2023-01-05T00:30:48.898Z,99.63
2023-01-05T00:33:17.189Z,95.82
2023-01-05T00:35:43.913Z,90.92
2023-01-05T00:38:10.973Z,94.25
2023-01-05T00:40:37.800Z,95.18
2023-01-05T00:43:04.852Z,90.73
2023-01-05T00:45:31.571Z,90.96
2023-01-05T00:47:58.396Z,91.94
2023-01-05T00:50:25.154Z,90.02
2023-01-05T00:52:51.886Z,88.77
2023-01-05T00:55:18.680Z,88.87
2023-01-05T00:57:46.532Z,88.52
2023-01-05T01:00:16.272Z,87.76
2023-01-05T01:02:43.280Z,89.81
2023-01-05T01:05:13.148Z,91.28
2023-01-05T01:07:39.875Z,89.25
2023-01-05T01:10:07.214Z,90.48
2023-01-05T01:12:34.007Z,89.90
2023-01-05T01:15:00.829Z,90.01
2023-01-05T01:17:27.587Z,89.50
2023-01-05T01:19:54.349Z,89.85
2023-01-05T01:22:21.044Z,90.42
2023-01-05T01:24:47.773Z,93.98
2023-01-05T01:27:14.489Z,93.78
2023-01-05T01:29:41.367Z,94.76
2023-01-05T01:32:08.418Z,93.06
2023-01-05T01:34:35.154Z,90.94
2023-01-05T01:39:27.373Z,90.02
2023-01-05T01:41:54.036Z,89.33
2023-01-05T01:44:39.440Z,88.08
2023-01-05T01:47:06.235Z,90.25
2023-01-05T01:49:32.927Z,89.28
2023-01-05T01:51:59.656Z,88.60
2023-01-05T01:54:26.348Z,90.14
2023-01-05T01:56:55.566Z,87.18
2023-01-05T01:59:24.327Z,87.16
2023-01-05T02:01:54.214Z,90.25
2023-01-05T02:04:21.399Z,91.04
2023-01-05T02:06:51.755Z,89.84
2023-01-05T02:09:18.747Z,89.06
2023-01-05T02:11:51.386Z,87.23
2023-01-05T02:14:27.316Z,89.23
2023-01-05T02:17:07.814Z,95.86
2023-01-05T02:19:43.776Z,96.41
2023-01-05T02:22:30.653Z,94.69
2023-01-05T02:25:00.342Z,94.14
2023-01-05T02:27:35.931Z,93.33
2023-01-05T02:30:05.774Z,92.97
2023-01-05T02:32:47.705Z,90.36
2023-01-05T02:35:40.573Z,94.06
2023-01-05T02:38:12.331Z,90.74
2023-01-05T02:40:43.023Z,95.25
2023-01-05T02:43:11.048Z,92.92
2023-01-05T02:45:37.788Z,92.36
2023-01-05T02:48:05.121Z,94.93
2023-01-05T02:50:38.113Z,97.63
2023-01-05T02:53:07.979Z,97.26
2023-01-05T02:55:39.734Z,98.39
2023-01-05T02:58:11.267Z,95.34
2023-01-05T03:00:59.031Z,98.72
2023-01-05T03:03:29.835Z,95.02
2023-01-05T03:06:01.099Z,94.18
2023-01-05T03:08:33.001Z,96.73
2023-01-05T03:11:18.761Z,97.71
2023-01-05T03:13:48.611Z,99.04
2023-01-05T03:16:19.131Z,98.04
2023-01-05T03:19:05.009Z,99.04
2023-01-05T03:21:50.152Z,98.93
2023-01-05T03:24:35.731Z,97.37
2023-01-05T03:27:22.031Z,97.71
2023-01-05T03:30:07.241Z,100.00
2023-01-05T03:32:53.760Z,97.47
2023-01-05T03:35:34.390Z,95.32
2023-01-05T03:38:06.665Z,95.23
2023-01-05T03:40:35.097Z,94.80
2023-01-05T03:43:03.009Z,100.00
2023-01-05T03:45:43.831Z,97.08
2023-01-05T03:48:10.554Z,96.76
2023-01-05T03:50:37.856Z,99.63
2023-01-05T03:53:05.188Z,100.00
2023-01-05T03:55:31.981Z,98.53
2023-01-05T03:57:59.066Z,95.46
2023-01-05T04:00:25.944Z,96.65
2023-01-05T04:02:52.837Z,96.88
2023-01-05T04:05:20.469Z,100.00
2023-01-05T04:07:47.208Z,96.93
2023-01-05T04:10:13.874Z,94.58
2023-01-05T04:12:40.604Z,97.31
2023-01-05T04:15:07.555Z,100.00
2023-01-05T04:17:34.432Z,98.63
2023-01-05T04:20:01.187Z,96.54
2023-01-05T04:22:27.869Z,95.37
2023-01-05T04:24:54.834Z,93.48
2023-01-05T04:27:21.526Z,93.14
2023-01-05T04:29:48.210Z,94.65
2023-01-05T04:32:15.010Z,95.36
2023-01-05T04:34:41.677Z,93.26
2023-01-05T04:37:08.420Z,96.31
2023-01-05T04:39:35.152Z,96.64
2023-01-05T04:42:01.980Z,92.30
2023-01-05T04:44:28.660Z,91.44
2023-01-05T04:46:55.445Z,90.48
2023-01-05T04:49:22.200Z,93.56
2023-01-05T04:51:48.930Z,92.76
2023-01-05T04:54:15.862Z,93.16
2023-01-05T04:56:42.594Z,95.91
2023-01-05T04:59:09.337Z,93.14
2023-01-05T05:01:36.268Z,90.89
2023-01-05T05:04:02.984Z,97.58
2023-01-05T05:06:29.672Z,97.06
2023-01-05T05:08:56.326Z,95.59
2023-01-05T05:11:23.356Z,94.32
2023-01-05T05:13:50.056Z,96.46
2023-01-05T05:16:16.688Z,99.71
2023-01-05T05:18:43.475Z,100.00
2023-01-05T05:21:10.537Z,95.46
2023-01-05T05:23:37.963Z,96.87
2023-01-05T05:26:04.879Z,97.43
2023-01-05T05:28:31.592Z,94.44
2023-01-05T05:30:58.343Z,93.72
2023-01-05T05:33:25.773Z,96.65
2023-01-05T05:35:52.977Z,99.12
2023-01-05T05:38:19.819Z,96.36
2023-01-05T05:40:48.266Z,100.00
2023-01-05T05:43:14.961Z,100.00
2023-01-05T05:45:47.895Z,100.00
2023-01-05T05:48:16.907Z,100.00
2023-01-05T05:50:44.526Z,96.36
2023-01-05T05:53:11.265Z,98.21
2023-01-05T05:55:38.189Z,100.00
2023-01-05T05:58:04.999Z,98.95
2023-01-05T06:00:33.087Z,100.00
2023-01-05T06:03:01.444Z,100.00
2023-01-05T06:05:29.076Z,99.70
2023-01-05T06:07:55.757Z,99.39
2023-01-05T06:10:22.405Z,97.19
2023-01-05T06:12:49.267Z,100.00
2023-01-05T06:15:16.031Z,98.44
2023-01-05T06:17:42.879Z,96.07
2023-01-05T06:20:10.053Z,95.28
2023-01-05T06:22:36.899Z,94.28
2023-01-05T06:25:03.921Z,92.08
2023-01-05T06:27:30.633Z,96.97
2023-01-05T06:29:57.399Z,94.76
2023-01-05T06:32:25.371Z,96.14
2023-01-05T06:34:52.299Z,96.59
2023-01-05T06:37:19.060Z,94.88
2023-01-05T06:39:45.794Z,93.14
2023-01-05T06:42:12.922Z,93.96
2023-01-05T06:44:39.604Z,92.95
2023-01-05T06:47:06.264Z,93.16
2023-01-05T06:49:32.972Z,92.00
2023-01-05T06:51:59.637Z,90.81
2023-01-05T06:54:26.372Z,90.13
2023-01-05T06:56:53.205Z,89.57
2023-01-05T06:59:19.878Z,89.10
2023-01-05T07:01:46.704Z,88.70
2023-01-05T07:04:13.523Z,88.50
2023-01-05T07:06:40.440Z,88.05
2023-01-05T07:09:07.275Z,88.45
2023-01-05T07:11:34.047Z,92.43
2023-01-05T07:14:00.797Z,94.26
2023-01-05T07:16:27.517Z,92.33
2023-01-05T07:18:54.222Z,100.00
2023-01-05T07:21:20.894Z,100.00
2023-01-05T07:23:48.288Z,97.70
2023-01-05T07:26:14.957Z,96.60
2023-01-05T07:28:41.764Z,96.32
2023-01-05T07:31:08.725Z,100.00
2023-01-05T07:33:39.899Z,96.98
2023-01-05T07:36:07.337Z,95.33
2023-01-05T07:38:34.105Z,95.61
2023-01-05T07:41:01.847Z,100.00
2023-01-05T07:43:28.668Z,96.33
2023-01-05T07:45:59.492Z,97.05
2023-01-05T07:48:26.297Z,100.00
2023-01-05T07:50:53.315Z,97.01
2023-01-05T07:53:20.130Z,99.02
2023-01-05T07:55:54.990Z,100.00
2023-01-05T07:58:21.704Z,99.94
2023-01-05T08:00:48.472Z,100.00
2023-01-05T08:03:15.865Z,99.24
2023-01-05T08:05:42.648Z,100.00
2023-01-05T08:08:11.457Z,99.65
2023-01-05T08:10:38.787Z,99.08
2023-01-05T08:13:24.697Z,95.82
2023-01-05T08:15:52.043Z,96.26
2023-01-05T08:18:19.711Z,97.01
2023-01-05T08:20:58.883Z,95.81
2023-01-05T08:23:26.969Z,95.33
2023-01-05T08:25:55.870Z,94.42
2023-01-05T08:28:24.658Z,93.24
2023-01-05T08:30:54.119Z,91.63
2023-01-05T08:33:20.958Z,91.92
2023-01-05T08:35:47.824Z,90.69
2023-01-05T08:38:14.747Z,91.57
2023-01-05T08:40:43.676Z,91.94
2023-01-05T08:43:10.947Z,93.47
2023-01-05T08:45:37.783Z,96.08
2023-01-05T08:48:04.534Z,94.95
2023-01-05T08:50:32.038Z,96.33
2023-01-05T08:52:58.716Z,96.04
2023-01-05T08:55:25.479Z,100.00
2023-01-05T08:57:52.270Z,94.25
2023-01-05T09:00:22.334Z,94.19
2023-01-05T09:02:49.432Z,92.84
2023-01-05T09:05:16.837Z,98.14
2023-01-05T09:07:45.172Z,98.97
2023-01-05T09:10:11.918Z,100.00
2023-01-05T09:12:39.296Z,95.96
2023-01-05T09:15:09.079Z,99.14
2023-01-05T09:17:38.758Z,99.31
2023-01-05T09:20:06.009Z,99.37
2023-01-05T09:22:32.789Z,95.13
2023-01-05T09:24:59.539Z,98.83
2023-01-05T09:27:26.265Z,99.24
2023-01-05T09:29:52.956Z,97.65
2023-01-05T09:32:20.389Z,94.10
2023-01-05T09:34:47.119Z,96.62
2023-01-05T09:37:16.348Z,93.32
2023-01-05T09:39:43.090Z,92.46
2023-01-05T09:42:14.229Z,91.59
2023-01-05T09:44:58.932Z,95.02
2023-01-05T09:47:37.064Z,92.42
2023-01-05T09:50:06.662Z,97.71
2023-01-05T09:52:38.060Z,94.34
2023-01-05T09:55:32.070Z,98.86
2023-01-05T09:58:02.346Z,98.72
2023-01-05T10:00:29.529Z,94.92
2023-01-05T10:02:59.190Z,91.66
2023-01-05T10:05:27.545Z,90.76
2023-01-05T10:08:13.117Z,91.79
2023-01-05T10:10:42.690Z,90.86
2023-01-05T10:13:19.595Z,90.19
2023-01-05T10:15:48.543Z,91.16
2023-01-05T10:18:17.911Z,89.50
2023-01-05T10:20:45.792Z,88.14
2023-01-05T10:23:15.462Z,87.62
2023-01-05T10:25:53.975Z,88.66
2023-01-05T10:28:20.721Z,86.53
2023-01-05T10:30:50.904Z,87.74
2023-01-05T10:33:41.607Z,87.33
2023-01-05T10:36:57.663Z,88.56
2023-01-05T10:39:31.828Z,84.85
2023-01-05T10:42:13.892Z,84.31
2023-01-05T10:44:49.880Z,85.27
2023-01-05T10:47:17.104Z,84.31
2023-01-05T10:49:45.697Z,83.13
2023-01-05T10:52:13.645Z,86.18
2023-01-05T10:54:43.613Z,83.34
2023-01-05T10:57:39.736Z,83.04
2023-01-05T11:00:09.541Z,83.40
2023-01-05T11:02:39.064Z,83.00
2023-01-05T11:05:15.029Z,80.89
2023-01-05T11:07:49.783Z,80.92
2023-01-05T11:10:36.606Z,82.94
2023-01-05T11:13:07.890Z,85.92
2023-01-05T11:15:40.786Z,87.30
2023-01-05T11:18:27.931Z,90.43
2023-01-05T11:21:08.619Z,85.83
2023-01-05T11:23:37.028Z,84.68
2023-01-05T11:26:13.076Z,83.34
2023-01-05T11:28:42.804Z,82.25
2023-01-05T11:31:10.065Z,81.28
2023-01-05T11:33:39.813Z,81.66
2023-01-05T11:36:06.873Z,80.56
2023-01-05T11:38:34.128Z,77.62
2023-01-05T11:41:01.226Z,78.28
2023-01-05T11:43:30.143Z,76.69
2023-01-05T11:46:01.489Z,75.99
2023-01-05T11:48:32.288Z,78.64
2023-01-05T11:50:59.776Z,80.16
2023-01-05T11:53:35.665Z,81.97
2023-01-05T11:56:05.965Z,85.35
2023-01-05T11:58:34.005Z,88.84
2023-01-05T12:01:21.194Z,88.90
2023-01-05T12:04:03.988Z,87.89
2023-01-05T12:06:49.266Z,91.53
2023-01-05T12:09:35.844Z,93.02
2023-01-05T12:12:08.696Z,88.99
2023-01-05T12:14:41.512Z,90.41
2023-01-05T12:17:14.365Z,90.57
2023-01-05T12:19:44.128Z,91.40
2023-01-05T12:22:14.080Z,89.46
2023-01-05T12:24:59.627Z,90.81
2023-01-05T12:27:26.325Z,87.26
2023-01-05T12:35:52.694Z,89.98
2023-01-05T12:38:34.883Z,90.58
2023-01-05T12:41:04.645Z,91.24
2023-01-05T12:43:40.971Z,89.88
2023-01-05T12:46:18.390Z,89.22
2023-01-05T12:48:52.578Z,90.96
2023-01-05T12:51:23.456Z,91.40
2023-01-05T12:54:02.667Z,87.89
2023-01-05T12:56:44.763Z,87.69
2023-01-05T12:59:25.154Z,87.62
2023-01-05T13:02:07.633Z,86.98
2023-01-05T13:04:47.774Z,85.60
2023-01-05T13:07:27.632Z,82.58
2023-01-05T13:10:03.823Z,83.28
2023-01-05T13:12:31.018Z,80.45
2023-01-05T13:15:07.140Z,81.72
2023-01-05T13:17:35.128Z,82.39
2023-01-05T13:20:10.912Z,80.50
2023-01-05T13:22:41.046Z,81.00
2023-01-05T13:25:20.117Z,79.51
2023-01-05T13:27:47.280Z,79.04
2023-01-05T13:30:20.099Z,79.88
2023-01-05T13:33:05.785Z,79.37
2023-01-05T13:35:41.538Z,78.89
2023-01-05T13:38:14.583Z,78.34
2023-01-05T13:41:03.680Z,78.18
2023-01-05T13:43:42.495Z,77.88
2023-01-05T13:46:30.930Z,77.97
2023-01-05T13:49:19.420Z,78.03
2023-01-05T13:51:57.071Z,78.51
2023-01-05T13:54:59.548Z,82.09
2023-01-05T13:57:47.291Z,81.85
2023-01-05T14:00:22.937Z,80.93
2023-01-05T14:03:07.673Z,79.73
2023-01-05T14:05:39.853Z,79.60
2023-01-05T14:08:17.407Z,79.87
2023-01-05T14:11:04.026Z,79.31
2023-01-05T14:13:47.694Z,79.38
2023-01-05T14:16:40.475Z,79.34
2023-01-05T14:19:15.021Z,79.05
2023-01-05T14:21:50.805Z,78.97
2023-01-05T14:24:31.787Z,78.90
2023-01-05T14:27:00.051Z,79.30
2023-01-05T14:29:45.451Z,78.78
2023-01-05T14:32:13.731Z,78.57
2023-01-05T14:34:50.838Z,78.17
2023-01-05T14:37:23.277Z,78.25
2023-01-05T14:39:53.319Z,78.33
2023-01-05T14:42:25.167Z,78.38
2023-01-05T14:45:02.892Z,78.48
2023-01-05T14:47:36.956Z,78.46
2023-01-05T14:50:06.179Z,79.82
2023-01-05T14:52:51.491Z,79.78
2023-01-05T14:55:27.033Z,79.24
2023-01-05T14:58:05.325Z,79.17
2023-01-05T15:00:58.223Z,79.54
2023-01-05T15:03:27.060Z,79.56
2023-01-05T15:05:57.297Z,81.73
2023-01-05T15:08:34.159Z,87.71
2023-01-05T15:11:13.494Z,86.89
2023-01-05T15:14:12.291Z,83.47
2023-01-05T15:16:57.780Z,82.88
2023-01-05T15:19:42.687Z,82.66
2023-01-05T15:22:36.453Z,84.62
2023-01-05T15:25:14.950Z,86.49
2023-01-05T15:27:52.315Z,83.25
2023-01-05T15:30:31.644Z,82.34
2023-01-05T15:33:18.598Z,82.11
2023-01-05T15:35:49.245Z,82.24
2023-01-05T15:38:24.077Z,81.46
2023-01-05T15:40:57.450Z,81.13
2023-01-05T15:43:24.419Z,80.97
2023-01-05T15:45:53.642Z,80.73
2023-01-05T15:48:29.179Z,80.65
2023-01-05T15:50:57.467Z,80.50
2023-01-05T15:53:24.116Z,80.28
2023-01-05T15:55:52.237Z,80.08
2023-01-05T15:58:19.614Z,79.99
2023-01-05T16:01:00.709Z,80.57
2023-01-05T16:03:29.172Z,80.48
2023-01-05T16:06:03.017Z,81.25
2023-01-05T16:08:32.048Z,84.35
2023-01-05T16:11:01.692Z,86.50
2023-01-05T16:13:33.689Z,89.35
2023-01-05T16:16:03.435Z,89.02
2023-01-05T16:18:35.422Z,84.38
2023-01-05T16:21:12.184Z,84.24
2023-01-05T16:23:51.345Z,83.41
2023-01-05T16:26:19.179Z,83.08
2023-01-05T16:28:46.348Z,83.09
2023-01-05T16:31:25.298Z,82.88
2023-01-05T16:34:10.666Z,83.34
2023-01-05T16:36:37.451Z,87.41
2023-01-05T16:39:14.864Z,86.65
2023-01-05T16:42:01.601Z,88.26
2023-01-05T16:44:33.241Z,87.29
2023-01-05T16:47:08.042Z,87.11
2023-01-05T16:49:53.293Z,87.92
2023-01-05T16:52:27.264Z,87.71
2023-01-05T16:55:27.173Z,87.64
2023-01-05T16:57:54.759Z,88.30
2023-01-05T17:00:31.018Z,86.87
2023-01-05T17:02:58.975Z,85.83
2023-01-05T17:05:30.001Z,85.18
2023-01-05T17:08:02.597Z,83.87
2023-01-05T17:10:29.683Z,83.01
2023-01-05T17:13:04.955Z,82.55
2023-01-05T17:15:33.202Z,81.73
2023-01-05T17:18:00.286Z,80.52
2023-01-05T17:20:29.710Z,80.53
2023-01-05T17:22:56.945Z,79.19
2023-01-05T17:25:26.500Z,78.69
2023-01-05T17:27:53.170Z,78.83
2023-01-05T17:30:21.160Z,78.34
2023-01-05T17:32:48.198Z,79.59
2023-01-05T17:35:17.159Z,80.11
2023-01-05T17:37:46.519Z,77.66
2023-01-05T17:40:17.186Z,77.99
2023-01-05T17:42:44.109Z,77.14
2023-01-05T17:45:18.779Z,77.64
2023-01-05T17:47:45.869Z,77.27
2023-01-05T17:50:14.488Z,78.76
2023-01-05T17:52:41.333Z,78.27
2023-01-05T17:55:08.397Z,79.80
2023-01-05T17:57:35.365Z,77.87
2023-01-05T18:00:02.290Z,77.90
2023-01-05T18:02:29.082Z,79.20
2023-01-05T18:04:56.956Z,77.92
2023-01-05T18:07:23.725Z,77.24
2023-01-05T18:09:50.710Z,76.93
2023-01-05T18:12:17.726Z,76.37
2023-01-05T18:14:45.226Z,76.21
2023-01-05T18:17:12.024Z,75.92
2023-01-05T18:19:38.697Z,75.61
2023-01-05T18:22:06.052Z,75.31
2023-01-05T18:24:32.729Z,75.56
2023-01-05T18:26:59.410Z,76.25
2023-01-05T18:29:26.291Z,76.04
2023-01-05T18:31:53.929Z,76.23
2023-01-05T18:34:20.776Z,84.00
2023-01-05T18:36:52.471Z,87.33
2023-01-05T18:39:25.401Z,86.66
2023-01-05T18:41:52.464Z,90.92
2023-01-05T18:44:19.207Z,88.70
2023-01-05T18:46:45.953Z,94.02
2023-01-05T18:49:13.412Z,93.11
2023-01-05T18:51:40.495Z,87.27
2023-01-05T18:54:07.741Z,87.48
2023-01-05T18:56:34.444Z,85.77
2023-01-05T18:59:01.359Z,83.84
2023-01-05T19:01:28.193Z,81.93
2023-01-05T19:03:55.441Z,85.21
2023-01-05T19:06:23.831Z,84.28
2023-01-05T19:08:51.260Z,83.05
2023-01-05T19:11:19.400Z,82.41
2023-01-05T19:13:47.237Z,81.71
2023-01-05T19:16:17.095Z,81.23
2023-01-05T19:18:44.031Z,80.11
2023-01-05T19:21:10.782Z,79.80
2023-01-05T19:23:37.609Z,79.79
2023-01-05T19:26:05.408Z,83.72
2023-01-05T19:28:34.360Z,80.35
2023-01-05T19:31:14.166Z,79.83
2023-01-05T19:33:41.817Z,79.30
2023-01-05T19:36:10.648Z,78.47
2023-01-05T19:38:38.490Z,78.18
2023-01-05T19:41:05.236Z,77.69
2023-01-05T19:43:32.132Z,77.33
2023-01-05T19:46:00.163Z,77.16
2023-01-05T19:48:27.314Z,79.08
2023-01-05T19:51:01.557Z,81.69
2023-01-05T19:53:28.348Z,85.19
2023-01-05T19:56:02.976Z,85.24
2023-01-05T19:58:30.088Z,85.89
2023-01-05T20:00:58.341Z,85.03
2023-01-05T20:03:25.045Z,86.89
2023-01-05T20:05:51.756Z,85.65
2023-01-05T20:08:18.439Z,83.96
2023-01-05T20:10:45.210Z,82.73
2023-01-05T20:13:11.960Z,81.92
2023-01-05T20:15:38.613Z,84.17
2023-01-05T20:18:05.604Z,83.90
2023-01-05T20:20:32.307Z,83.24
2023-01-05T20:22:59.191Z,82.55
2023-01-05T20:25:25.877Z,82.32
2023-01-05T20:27:52.576Z,83.33
2023-01-05T20:30:19.316Z,86.62
2023-01-05T20:32:46.029Z,84.05
2023-01-05T20:35:13.245Z,82.95
2023-01-05T20:37:40.006Z,82.43
2023-01-05T20:40:07.025Z,82.05
2023-01-05T20:42:33.846Z,83.10
2023-01-05T20:45:03.074Z,81.29
2023-01-05T20:47:31.847Z,80.88
2023-01-05T20:50:03.330Z,81.72
2023-01-05T20:52:29.982Z,82.05
2023-01-05T20:54:56.753Z,78.14
2023-01-05T20:57:24.034Z,81.07
2023-01-05T20:59:50.723Z,80.38
2023-01-05T21:02:24.033Z,79.60
2023-01-05T21:04:52.310Z,81.52
2023-01-05T21:07:19.171Z,80.25
2023-01-05T21:09:45.807Z,80.21
2023-01-05T21:12:12.584Z,78.78
2023-01-05T21:14:39.687Z,80.72
2023-01-05T21:17:06.506Z,83.53
2023-01-05T21:19:34.103Z,81.41
2023-01-05T21:22:00.884Z,82.86
2023-01-05T21:24:27.651Z,89.90
2023-01-05T21:26:55.069Z,87.98
2023-01-05T21:29:23.625Z,85.33
2023-01-05T21:31:51.583Z,83.27
2023-01-05T21:34:18.754Z,82.10
2023-01-05T21:36:46.091Z,82.06
2023-01-05T21:39:17.586Z,81.28
2023-01-05T21:42:02.863Z,84.27
2023-01-05T21:44:29.808Z,86.66
2023-01-05T21:46:56.604Z,87.59
2023-01-05T21:49:23.347Z,84.22
2023-01-05T21:52:08.456Z,84.21
2023-01-05T21:54:53.494Z,83.31
2023-01-05T21:57:20.269Z,82.80
2023-01-05T21:59:47.141Z,82.55
2023-01-05T22:02:14.428Z,81.91
2023-01-05T22:04:41.166Z,82.53
2023-01-05T22:07:08.036Z,89.81
2023-01-05T22:09:35.253Z,91.47
2023-01-05T22:12:02.936Z,87.58
2023-01-05T22:14:29.688Z,87.21
2023-01-05T22:16:56.453Z,85.85
2023-01-05T22:19:23.336Z,84.24
2023-01-05T22:21:50.114Z,84.16
2023-01-05T22:24:17.001Z,82.54
2023-01-05T22:26:43.622Z,83.72
2023-01-05T22:29:10.426Z,84.62
2023-01-05T22:31:37.109Z,86.44
2023-01-05T22:34:05.304Z,90.86
2023-01-05T22:36:32.355Z,95.75
2023-01-05T22:38:59.084Z,92.26
2023-01-05T22:41:27.284Z,88.79
2023-01-05T22:43:54.076Z,90.69
2023-01-05T22:46:22.609Z,89.10
2023-01-05T22:48:50.312Z,96.78
2023-01-05T22:51:19.045Z,93.81
2023-01-05T22:53:45.951Z,89.80
2023-01-05T22:56:13.887Z,88.83
2023-01-05T22:58:40.764Z,88.43
2023-01-05T23:01:07.669Z,88.04
2023-01-05T23:03:34.406Z,87.08
2023-01-05T23:06:01.223Z,86.31
2023-01-05T23:08:28.223Z,85.91
2023-01-05T23:11:01.993Z,85.56
2023-01-05T23:13:29.133Z,85.56
2023-01-05T23:15:56.376Z,84.05
2023-01-05T23:18:23.699Z,85.35
2023-01-05T23:20:57.773Z,91.00
2023-01-05T23:23:24.580Z,90.94
2023-01-05T23:25:51.724Z,90.31
2023-01-05T23:28:19.351Z,88.64
2023-01-05T23:30:48.884Z,89.48
2023-01-05T23:33:16.553Z,88.12
2023-01-05T23:35:43.828Z,87.09
2023-01-05T23:38:10.727Z,88.08
2023-01-05T23:40:44.655Z,87.75
2023-01-05T23:43:12.030Z,87.18
2023-01-05T23:45:40.548Z,86.32
2023-01-05T23:48:08.722Z,90.77
2023-01-05T23:50:35.797Z,95.54
2023-01-05T23:53:03.620Z,90.87
2023-01-05T23:55:30.405Z,89.94
2023-01-05T23:57:58.326Z,89.10
